sensor_id;sensor_type;location;lat;lon;timestamp;P1;durP1;ratioP1;P2;durP2;ratioP2
58101;SDS011;52034;51.926;6.320;2023-09-12T00:00:17;23.60;;;19.30;;
58101;SDS011;52034;51.926;6.320;2023-09-12T00:01:17;25.13;;;19.13;;
58101;SDS011;52034;51.926;6.320;2023-09-12T00:02:17;23.00;;;20.07;;
58101;SDS011;52034;51.926;6.320;2023-09-12T00:03:19;23.17;;;18.97;;
58101;SDS011;52034;51.926;6.320;2023-09-12T00:04:21;21.80;;;18.73;;
58101;SDS011;52034;51.926;6.320;2023-09-12T00:05:21;21.83;;;19.53;;
58101;SDS011;52034;51.926;6.320;2023-09-12T00:06:21;24.13;;;20.77;;
58101;SDS011;52034;51.926;6.320;2023-09-12T00:07:21;25.93;;;20.10;;
58101;SDS011;52034;51.926;6.320;2023-09-12T00:08:22;22.43;;;19.33;;
58101;SDS011;52034;51.926;6.320;2023-09-12T00:09:23;26.75;;;21.90;;
58101;SDS011;52034;51.926;6.320;2023-09-12T00:10:23;23.40;;;20.87;;
58101;SDS011;52034;51.926;6.320;2023-09-12T00:11:23;24.67;;;21.60;;
58101;SDS011;52034;51.926;6.320;2023-09-12T00:12:25;26.05;;;19.88;;
58101;SDS011;52034;51.926;6.320;2023-09-12T00:13:25;22.07;;;18.70;;
58101;SDS011;52034;51.926;6.320;2023-09-12T00:14:26;29.77;;;19.70;;
58101;SDS011;52034;51.926;6.320;2023-09-12T00:15:26;23.40;;;19.53;;
58101;SDS011;52034;51.926;6.320;2023-09-12T00:16:26;26.93;;;20.17;;
58101;SDS011;52034;51.926;6.320;2023-09-12T00:17:27;28.50;;;20.50;;
58101;SDS011;52034;51.926;6.320;2023-09-12T00:18:27;26.93;;;19.30;;
58101;SDS011;52034;51.926;6.320;2023-09-12T00:19:27;29.27;;;20.73;;
58101;SDS011;52034;51.926;6.320;2023-09-12T00:20:28;30.80;;;21.97;;
58101;SDS011;52034;51.926;6.320;2023-09-12T00:21:28;29.20;;;19.90;;
58101;SDS011;52034;51.926;6.320;2023-09-12T00:22:28;22.43;;;18.90;;
58101;SDS011;52034;51.926;6.320;2023-09-12T00:23:29;24.37;;;21.17;;
58101;SDS011;52034;51.926;6.320;2023-09-12T00:24:29;24.20;;;20.00;;
58101;SDS011;52034;51.926;6.320;2023-09-12T00:25:29;27.10;;;22.17;;
58101;SDS011;52034;51.926;6.320;2023-09-12T00:26:29;29.80;;;22.83;;
58101;SDS011;52034;51.926;6.320;2023-09-12T00:27:30;26.38;;;20.95;;
58101;SDS011;52034;51.926;6.320;2023-09-12T00:28:31;32.10;;;24.43;;
58101;SDS011;52034;51.926;6.320;2023-09-12T00:29:31;25.17;;;21.73;;
58101;SDS011;52034;51.926;6.320;2023-09-12T00:30:32;26.52;;;21.38;;
58101;SDS011;52034;51.926;6.320;2023-09-12T00:31:32;24.87;;;20.40;;
58101;SDS011;52034;51.926;6.320;2023-09-12T00:32:32;26.40;;;21.80;;
58101;SDS011;52034;51.926;6.320;2023-09-12T00:33:33;29.00;;;23.13;;
58101;SDS011;52034;51.926;6.320;2023-09-12T00:34:33;26.50;;;22.63;;
58101;SDS011;52034;51.926;6.320;2023-09-12T00:35:33;29.93;;;22.83;;
58101;SDS011;52034;51.926;6.320;2023-09-12T00:36:34;26.40;;;21.67;;
58101;SDS011;52034;51.926;6.320;2023-09-12T00:37:34;25.57;;;22.43;;
58101;SDS011;52034;51.926;6.320;2023-09-12T00:38:34;31.30;;;23.50;;
58101;SDS011;52034;51.926;6.320;2023-09-12T00:39:34;29.23;;;21.47;;
58101;SDS011;52034;51.926;6.320;2023-09-12T00:40:35;27.80;;;21.47;;
58101;SDS011;52034;51.926;6.320;2023-09-12T00:41:35;26.50;;;21.60;;
58101;SDS011;52034;51.926;6.320;2023-09-12T00:42:35;31.20;;;24.83;;
58101;SDS011;52034;51.926;6.320;2023-09-12T00:43:36;27.23;;;22.63;;
58101;SDS011;52034;51.926;6.320;2023-09-12T00:44:36;28.50;;;20.37;;
58101;SDS011;52034;51.926;6.320;2023-09-12T00:45:36;29.17;;;22.43;;
58101;SDS011;52034;51.926;6.320;2023-09-12T00:46:37;33.15;;;23.90;;
58101;SDS011;52034;51.926;6.320;2023-09-12T00:47:38;30.33;;;23.77;;
58101;SDS011;52034;51.926;6.320;2023-09-12T00:48:38;35.53;;;24.50;;
58101;SDS011;52034;51.926;6.320;2023-09-12T00:49:39;27.67;;;21.87;;
58101;SDS011;52034;51.926;6.320;2023-09-12T00:50:39;24.87;;;20.50;;
58101;SDS011;52034;51.926;6.320;2023-09-12T00:51:40;47.22;;;23.98;;
58101;SDS011;52034;51.926;6.320;2023-09-12T00:52:42;36.25;;;23.48;;
58101;SDS011;52034;51.926;6.320;2023-09-12T00:53:43;32.25;;;23.52;;
58101;SDS011;52034;51.926;6.320;2023-09-12T00:54:43;31.00;;;22.87;;
58101;SDS011;52034;51.926;6.320;2023-09-12T00:55:49;26.37;;;22.77;;
58101;SDS011;52034;51.926;6.320;2023-09-12T00:56:54;30.13;;;21.60;;
58101;SDS011;52034;51.926;6.320;2023-09-12T00:57:54;25.47;;;22.63;;
58101;SDS011;52034;51.926;6.320;2023-09-12T00:58:55;28.60;;;21.77;;
58101;SDS011;52034;51.926;6.320;2023-09-12T00:59:56;27.15;;;21.50;;
58101;SDS011;52034;51.926;6.320;2023-09-12T01:00:58;28.92;;;22.63;;
58101;SDS011;52034;51.926;6.320;2023-09-12T01:01:58;26.07;;;20.70;;
58101;SDS011;52034;51.926;6.320;2023-09-12T01:04:00;30.35;;;21.73;;
58101;SDS011;52034;51.926;6.320;2023-09-12T01:05:02;27.40;;;22.08;;
58101;SDS011;52034;51.926;6.320;2023-09-12T01:06:03;30.90;;;22.60;;
58101;SDS011;52034;51.926;6.320;2023-09-12T01:07:05;25.55;;;20.95;;
58101;SDS011;52034;51.926;6.320;2023-09-12T01:08:06;30.30;;;21.67;;
58101;SDS011;52034;51.926;6.320;2023-09-12T01:09:06;25.17;;;20.83;;
58101;SDS011;52034;51.926;6.320;2023-09-12T01:10:07;25.88;;;21.55;;
58101;SDS011;52034;51.926;6.320;2023-09-12T01:11:08;29.03;;;21.53;;
58101;SDS011;52034;51.926;6.320;2023-09-12T01:12:09;30.33;;;22.17;;
58101;SDS011;52034;51.926;6.320;2023-09-12T01:13:14;29.38;;;22.02;;
58101;SDS011;52034;51.926;6.320;2023-09-12T01:14:14;26.87;;;22.97;;
58101;SDS011;52034;51.926;6.320;2023-09-12T01:15:15;33.13;;;22.83;;
58101;SDS011;52034;51.926;6.320;2023-09-12T01:16:16;27.15;;;23.00;;
58101;SDS011;52034;51.926;6.320;2023-09-12T01:17:16;32.43;;;24.87;;
58101;SDS011;52034;51.926;6.320;2023-09-12T01:18:17;28.20;;;23.47;;
58101;SDS011;52034;51.926;6.320;2023-09-12T01:19:18;32.13;;;23.47;;
58101;SDS011;52034;51.926;6.320;2023-09-12T01:20:22;26.63;;;22.00;;
58101;SDS011;52034;51.926;6.320;2023-09-12T01:23:21;26.02;;;21.92;;
58101;SDS011;52034;51.926;6.320;2023-09-12T01:27:18;26.85;;;23.50;;
58101;SDS011;52034;51.926;6.320;2023-09-12T01:28:22;26.23;;;22.58;;
58101;SDS011;52034;51.926;6.320;2023-09-12T01:29:25;27.80;;;23.10;;
58101;SDS011;52034;51.926;6.320;2023-09-12T01:30:26;27.15;;;21.90;;
58101;SDS011;52034;51.926;6.320;2023-09-12T01:32:29;24.45;;;21.50;;
58101;SDS011;52034;51.926;6.320;2023-09-12T01:33:31;29.60;;;23.65;;
58101;SDS011;52034;51.926;6.320;2023-09-12T01:34:31;27.10;;;24.17;;
58101;SDS011;52034;51.926;6.320;2023-09-12T01:35:31;30.83;;;23.67;;
58101;SDS011;52034;51.926;6.320;2023-09-12T01:36:31;32.77;;;24.83;;
58101;SDS011;52034;51.926;6.320;2023-09-12T01:37:32;27.10;;;22.17;;
58101;SDS011;52034;51.926;6.320;2023-09-12T01:38:32;33.03;;;23.67;;
58101;SDS011;52034;51.926;6.320;2023-09-12T01:39:32;26.83;;;23.53;;
58101;SDS011;52034;51.926;6.320;2023-09-12T01:40:41;28.70;;;21.83;;
58101;SDS011;52034;51.926;6.320;2023-09-12T01:41:44;30.05;;;22.55;;
58101;SDS011;52034;51.926;6.320;2023-09-12T01:42:47;33.20;;;22.98;;
58101;SDS011;52034;51.926;6.320;2023-09-12T01:44:50;26.67;;;21.65;;
58101;SDS011;52034;51.926;6.320;2023-09-12T01:45:55;28.58;;;22.20;;
58101;SDS011;52034;51.926;6.320;2023-09-12T01:47:00;27.15;;;22.10;;
58101;SDS011;52034;51.926;6.320;2023-09-12T01:48:04;27.50;;;24.05;;
58101;SDS011;52034;51.926;6.320;2023-09-12T01:49:06;28.92;;;22.90;;
58101;SDS011;52034;51.926;6.320;2023-09-12T01:50:09;27.05;;;23.95;;
58101;SDS011;52034;51.926;6.320;2023-09-12T01:51:13;29.95;;;24.20;;
58101;SDS011;52034;51.926;6.320;2023-09-12T01:52:15;29.65;;;23.98;;
58101;SDS011;52034;51.926;6.320;2023-09-12T01:53:16;28.30;;;22.15;;
58101;SDS011;52034;51.926;6.320;2023-09-12T01:54:17;27.85;;;23.50;;
58101;SDS011;52034;51.926;6.320;2023-09-12T01:55:19;31.15;;;22.85;;
58101;SDS011;52034;51.926;6.320;2023-09-12T01:57:21;24.60;;;22.00;;
58101;SDS011;52034;51.926;6.320;2023-09-12T01:58:22;29.27;;;23.87;;
58101;SDS011;52034;51.926;6.320;2023-09-12T01:59:24;31.98;;;24.30;;
58101;SDS011;52034;51.926;6.320;2023-09-12T02:00:25;31.20;;;24.90;;
58101;SDS011;52034;51.926;6.320;2023-09-12T02:01:25;29.67;;;23.93;;
58101;SDS011;52034;51.926;6.320;2023-09-12T02:03:27;24.40;;;20.98;;
58101;SDS011;52034;51.926;6.320;2023-09-12T02:04:27;26.43;;;21.50;;
58101;SDS011;52034;51.926;6.320;2023-09-12T02:05:28;32.40;;;23.88;;
58101;SDS011;52034;51.926;6.320;2023-09-12T02:06:28;29.20;;;23.27;;
58101;SDS011;52034;51.926;6.320;2023-09-12T02:07:29;34.77;;;24.70;;
58101;SDS011;52034;51.926;6.320;2023-09-12T02:08:33;26.42;;;22.90;;
58101;SDS011;52034;51.926;6.320;2023-09-12T02:09:34;33.90;;;24.40;;
58101;SDS011;52034;51.926;6.320;2023-09-12T02:10:34;28.33;;;22.83;;
58101;SDS011;52034;51.926;6.320;2023-09-12T02:11:34;29.40;;;22.37;;
58101;SDS011;52034;51.926;6.320;2023-09-12T02:12:34;28.50;;;22.27;;
58101;SDS011;52034;51.926;6.320;2023-09-12T02:13:35;35.17;;;26.07;;
58101;SDS011;52034;51.926;6.320;2023-09-12T02:14:35;29.33;;;22.83;;
58101;SDS011;52034;51.926;6.320;2023-09-12T02:15:36;24.57;;;20.77;;
58101;SDS011;52034;51.926;6.320;2023-09-12T02:16:36;25.93;;;21.70;;
58101;SDS011;52034;51.926;6.320;2023-09-12T02:17:40;26.23;;;22.27;;
58101;SDS011;52034;51.926;6.320;2023-09-12T02:18:40;27.20;;;21.67;;
58101;SDS011;52034;51.926;6.320;2023-09-12T02:19:40;30.23;;;22.27;;
58101;SDS011;52034;51.926;6.320;2023-09-12T02:20:41;30.30;;;22.43;;
58101;SDS011;52034;51.926;6.320;2023-09-12T02:21:44;27.08;;;22.10;;
58101;SDS011;52034;51.926;6.320;2023-09-12T02:22:45;32.17;;;22.33;;
58101;SDS011;52034;51.926;6.320;2023-09-12T02:23:45;23.07;;;19.27;;
58101;SDS011;52034;51.926;6.320;2023-09-12T02:24:46;26.05;;;19.85;;
58101;SDS011;52034;51.926;6.320;2023-09-12T02:25:46;26.87;;;20.63;;
58101;SDS011;52034;51.926;6.320;2023-09-12T02:26:46;32.10;;;23.03;;
58101;SDS011;52034;51.926;6.320;2023-09-12T02:27:47;28.67;;;22.67;;
58101;SDS011;52034;51.926;6.320;2023-09-12T02:28:47;28.57;;;22.77;;
58101;SDS011;52034;51.926;6.320;2023-09-12T02:29:47;25.83;;;22.27;;
58101;SDS011;52034;51.926;6.320;2023-09-12T02:30:48;29.73;;;23.10;;
58101;SDS011;52034;51.926;6.320;2023-09-12T02:31:48;32.60;;;24.80;;
58101;SDS011;52034;51.926;6.320;2023-09-12T02:32:48;24.53;;;20.43;;
58101;SDS011;52034;51.926;6.320;2023-09-12T02:33:49;29.27;;;21.17;;
58101;SDS011;52034;51.926;6.320;2023-09-12T02:34:49;25.97;;;21.27;;
58101;SDS011;52034;51.926;6.320;2023-09-12T02:35:50;28.87;;;22.87;;
58101;SDS011;52034;51.926;6.320;2023-09-12T02:36:50;26.03;;;22.57;;
58101;SDS011;52034;51.926;6.320;2023-09-12T02:37:50;34.63;;;24.57;;
58101;SDS011;52034;51.926;6.320;2023-09-12T02:38:50;26.47;;;23.03;;
58101;SDS011;52034;51.926;6.320;2023-09-12T02:39:51;26.33;;;23.03;;
58101;SDS011;52034;51.926;6.320;2023-09-12T02:40:51;25.63;;;22.67;;
58101;SDS011;52034;51.926;6.320;2023-09-12T02:41:52;26.47;;;21.57;;
58101;SDS011;52034;51.926;6.320;2023-09-12T02:42:52;25.00;;;21.27;;
58101;SDS011;52034;51.926;6.320;2023-09-12T02:43:52;23.80;;;21.00;;
58101;SDS011;52034;51.926;6.320;2023-09-12T02:44:53;31.17;;;24.20;;
58101;SDS011;52034;51.926;6.320;2023-09-12T02:45:53;27.30;;;23.43;;
58101;SDS011;52034;51.926;6.320;2023-09-12T02:46:53;30.70;;;23.57;;
58101;SDS011;52034;51.926;6.320;2023-09-12T02:47:54;30.93;;;24.47;;
58101;SDS011;52034;51.926;6.320;2023-09-12T02:48:54;31.00;;;24.60;;
58101;SDS011;52034;51.926;6.320;2023-09-12T02:49:54;35.33;;;26.47;;
58101;SDS011;52034;51.926;6.320;2023-09-12T02:50:55;34.10;;;24.43;;
58101;SDS011;52034;51.926;6.320;2023-09-12T02:51:55;35.37;;;24.80;;
58101;SDS011;52034;51.926;6.320;2023-09-12T02:52:55;32.13;;;23.27;;
58101;SDS011;52034;51.926;6.320;2023-09-12T02:53:56;35.53;;;25.33;;
58101;SDS011;52034;51.926;6.320;2023-09-12T02:54:56;33.90;;;24.03;;
58101;SDS011;52034;51.926;6.320;2023-09-12T02:55:56;33.90;;;25.07;;
58101;SDS011;52034;51.926;6.320;2023-09-12T02:56:57;26.07;;;23.07;;
58101;SDS011;52034;51.926;6.320;2023-09-12T02:57:57;24.63;;;22.00;;
58101;SDS011;52034;51.926;6.320;2023-09-12T02:58:57;26.37;;;21.40;;
58101;SDS011;52034;51.926;6.320;2023-09-12T02:59:58;26.70;;;20.97;;
58101;SDS011;52034;51.926;6.320;2023-09-12T03:00:58;25.83;;;21.70;;
58101;SDS011;52034;51.926;6.320;2023-09-12T03:01:59;23.58;;;20.30;;
58101;SDS011;52034;51.926;6.320;2023-09-12T03:03:00;25.93;;;21.20;;
58101;SDS011;52034;51.926;6.320;2023-09-12T03:04:00;25.23;;;21.47;;
58101;SDS011;52034;51.926;6.320;2023-09-12T03:05:00;24.23;;;21.20;;
58101;SDS011;52034;51.926;6.320;2023-09-12T03:06:04;23.98;;;20.48;;
58101;SDS011;52034;51.926;6.320;2023-09-12T03:07:04;27.20;;;20.07;;
58101;SDS011;52034;51.926;6.320;2023-09-12T03:08:05;23.10;;;20.53;;
58101;SDS011;52034;51.926;6.320;2023-09-12T03:09:05;24.20;;;20.83;;
58101;SDS011;52034;51.926;6.320;2023-09-12T03:10:07;23.10;;;20.67;;
58101;SDS011;52034;51.926;6.320;2023-09-12T03:11:07;24.70;;;22.05;;
58101;SDS011;52034;51.926;6.320;2023-09-12T03:12:08;25.45;;;22.75;;
58101;SDS011;52034;51.926;6.320;2023-09-12T03:13:11;23.67;;;21.13;;
58101;SDS011;52034;51.926;6.320;2023-09-12T03:14:12;23.10;;;20.45;;
58101;SDS011;52034;51.926;6.320;2023-09-12T03:15:12;30.80;;;24.47;;
58101;SDS011;52034;51.926;6.320;2023-09-12T03:16:13;26.80;;;21.23;;
58101;SDS011;52034;51.926;6.320;2023-09-12T03:17:14;24.27;;;21.63;;
58101;SDS011;52034;51.926;6.320;2023-09-12T03:18:14;22.47;;;20.13;;
58101;SDS011;52034;51.926;6.320;2023-09-12T03:19:15;21.83;;;19.50;;
58101;SDS011;52034;51.926;6.320;2023-09-12T03:20:15;22.97;;;19.93;;
58101;SDS011;52034;51.926;6.320;2023-09-12T03:21:15;23.87;;;20.60;;
58101;SDS011;52034;51.926;6.320;2023-09-12T03:22:16;22.57;;;20.03;;
58101;SDS011;52034;51.926;6.320;2023-09-12T03:23:16;24.87;;;20.50;;
58101;SDS011;52034;51.926;6.320;2023-09-12T03:24:16;24.07;;;21.00;;
58101;SDS011;52034;51.926;6.320;2023-09-12T03:25:18;20.75;;;18.65;;
58101;SDS011;52034;51.926;6.320;2023-09-12T03:26:18;21.73;;;18.93;;
58101;SDS011;52034;51.926;6.320;2023-09-12T03:27:19;18.87;;;15.90;;
58101;SDS011;52034;51.926;6.320;2023-09-12T03:28:19;22.47;;;19.67;;
58101;SDS011;52034;51.926;6.320;2023-09-12T03:29:19;19.73;;;17.60;;
58101;SDS011;52034;51.926;6.320;2023-09-12T03:30:20;20.77;;;17.90;;
58101;SDS011;52034;51.926;6.320;2023-09-12T03:31:21;27.75;;;21.92;;
58101;SDS011;52034;51.926;6.320;2023-09-12T03:32:21;25.20;;;21.90;;
58101;SDS011;52034;51.926;6.320;2023-09-12T03:33:22;28.53;;;21.93;;
58101;SDS011;52034;51.926;6.320;2023-09-12T03:34:22;28.73;;;23.13;;
58101;SDS011;52034;51.926;6.320;2023-09-12T03:35:22;24.83;;;21.70;;
58101;SDS011;52034;51.926;6.320;2023-09-12T03:36:23;31.67;;;24.23;;
58101;SDS011;52034;51.926;6.320;2023-09-12T03:37:23;28.37;;;24.80;;
58101;SDS011;52034;51.926;6.320;2023-09-12T03:38:27;43.80;;;25.50;;
58101;SDS011;52034;51.926;6.320;2023-09-12T03:39:28;24.80;;;20.87;;
58101;SDS011;52034;51.926;6.320;2023-09-12T03:40:28;22.03;;;19.83;;
58101;SDS011;52034;51.926;6.320;2023-09-12T03:41:32;24.83;;;20.42;;
58101;SDS011;52034;51.926;6.320;2023-09-12T03:42:34;21.00;;;18.77;;
58101;SDS011;52034;51.926;6.320;2023-09-12T03:43:34;21.27;;;18.73;;
58101;SDS011;52034;51.926;6.320;2023-09-12T03:44:37;27.20;;;21.88;;
58101;SDS011;52034;51.926;6.320;2023-09-12T03:45:37;21.83;;;19.57;;
58101;SDS011;52034;51.926;6.320;2023-09-12T03:46:37;20.77;;;18.60;;
58101;SDS011;52034;51.926;6.320;2023-09-12T03:47:38;23.70;;;18.43;;
58101;SDS011;52034;51.926;6.320;2023-09-12T03:48:38;21.53;;;18.60;;
58101;SDS011;52034;51.926;6.320;2023-09-12T03:49:38;21.13;;;18.83;;
58101;SDS011;52034;51.926;6.320;2023-09-12T03:50:39;24.70;;;21.63;;
58101;SDS011;52034;51.926;6.320;2023-09-12T03:51:39;25.53;;;20.73;;
58101;SDS011;52034;51.926;6.320;2023-09-12T03:52:40;23.50;;;21.20;;
58101;SDS011;52034;51.926;6.320;2023-09-12T03:53:40;25.10;;;20.73;;
58101;SDS011;52034;51.926;6.320;2023-09-12T03:54:41;26.33;;;21.97;;
58101;SDS011;52034;51.926;6.320;2023-09-12T03:55:42;25.17;;;21.25;;
58101;SDS011;52034;51.926;6.320;2023-09-12T03:56:42;27.45;;;23.77;;
58101;SDS011;52034;51.926;6.320;2023-09-12T03:57:43;34.67;;;21.90;;
58101;SDS011;52034;51.926;6.320;2023-09-12T03:58:43;27.97;;;21.97;;
58101;SDS011;52034;51.926;6.320;2023-09-12T03:59:44;26.37;;;22.77;;
58101;SDS011;52034;51.926;6.320;2023-09-12T04:00:46;25.42;;;21.98;;
58101;SDS011;52034;51.926;6.320;2023-09-12T04:01:46;34.03;;;23.13;;
58101;SDS011;52034;51.926;6.320;2023-09-12T04:03:49;23.55;;;20.67;;
58101;SDS011;52034;51.926;6.320;2023-09-12T04:04:49;25.00;;;19.57;;
58101;SDS011;52034;51.926;6.320;2023-09-12T04:05:50;22.77;;;18.97;;
58101;SDS011;52034;51.926;6.320;2023-09-12T04:06:51;22.67;;;19.38;;
58101;SDS011;52034;51.926;6.320;2023-09-12T04:07:51;21.10;;;18.23;;
58101;SDS011;52034;51.926;6.320;2023-09-12T04:08:52;21.87;;;18.57;;
58101;SDS011;52034;51.926;6.320;2023-09-12T04:09:52;20.40;;;18.40;;
58101;SDS011;52034;51.926;6.320;2023-09-12T04:10:52;19.33;;;17.23;;
58101;SDS011;52034;51.926;6.320;2023-09-12T04:11:53;21.30;;;17.67;;
58101;SDS011;52034;51.926;6.320;2023-09-12T04:12:53;31.67;;;20.60;;
58101;SDS011;52034;51.926;6.320;2023-09-12T04:13:53;24.37;;;21.70;;
58101;SDS011;52034;51.926;6.320;2023-09-12T04:14:53;36.77;;;24.80;;
58101;SDS011;52034;51.926;6.320;2023-09-12T04:15:55;43.58;;;26.85;;
58101;SDS011;52034;51.926;6.320;2023-09-12T04:16:55;58.67;;;26.90;;
58101;SDS011;52034;51.926;6.320;2023-09-12T04:17:55;33.53;;;21.63;;
58101;SDS011;52034;51.926;6.320;2023-09-12T04:18:56;24.20;;;21.73;;
58101;SDS011;52034;51.926;6.320;2023-09-12T04:19:56;26.67;;;21.97;;
58101;SDS011;52034;51.926;6.320;2023-09-12T04:20:56;26.30;;;22.43;;
58101;SDS011;52034;51.926;6.320;2023-09-12T04:21:57;26.13;;;22.98;;
58101;SDS011;52034;51.926;6.320;2023-09-12T04:23:00;30.87;;;24.50;;
58101;SDS011;52034;51.926;6.320;2023-09-12T04:24:01;29.27;;;25.80;;
58101;SDS011;52034;51.926;6.320;2023-09-12T04:25:02;46.87;;;29.73;;
58101;SDS011;52034;51.926;6.320;2023-09-12T04:26:03;44.13;;;30.80;;
58101;SDS011;52034;51.926;6.320;2023-09-12T04:27:04;35.88;;;29.40;;
58101;SDS011;52034;51.926;6.320;2023-09-12T04:28:05;48.60;;;33.10;;
58101;SDS011;52034;51.926;6.320;2023-09-12T04:29:05;52.13;;;33.03;;
58101;SDS011;52034;51.926;6.320;2023-09-12T04:30:05;42.77;;;31.80;;
58101;SDS011;52034;51.926;6.320;2023-09-12T04:31:06;48.78;;;32.80;;
58101;SDS011;52034;51.926;6.320;2023-09-12T04:32:07;73.90;;;36.23;;
58101;SDS011;52034;51.926;6.320;2023-09-12T04:33:07;54.37;;;33.90;;
58101;SDS011;52034;51.926;6.320;2023-09-12T04:34:07;67.13;;;37.27;;
58101;SDS011;52034;51.926;6.320;2023-09-12T04:35:08;44.70;;;33.73;;
58101;SDS011;52034;51.926;6.320;2023-09-12T04:36:08;51.50;;;34.80;;
58101;SDS011;52034;51.926;6.320;2023-09-12T04:37:09;47.40;;;35.20;;
58101;SDS011;52034;51.926;6.320;2023-09-12T04:38:09;54.10;;;35.60;;
58101;SDS011;52034;51.926;6.320;2023-09-12T04:39:09;45.23;;;35.07;;
58101;SDS011;52034;51.926;6.320;2023-09-12T04:40:10;45.13;;;33.50;;
58101;SDS011;52034;51.926;6.320;2023-09-12T04:41:11;43.17;;;33.08;;
58101;SDS011;52034;51.926;6.320;2023-09-12T04:42:15;44.42;;;32.63;;
58101;SDS011;52034;51.926;6.320;2023-09-12T04:43:15;41.13;;;30.93;;
58101;SDS011;52034;51.926;6.320;2023-09-12T04:44:15;40.77;;;32.03;;
58101;SDS011;52034;51.926;6.320;2023-09-12T04:45:16;49.27;;;33.37;;
58101;SDS011;52034;51.926;6.320;2023-09-12T04:46:16;47.07;;;33.67;;
58101;SDS011;52034;51.926;6.320;2023-09-12T04:47:16;48.47;;;33.57;;
58101;SDS011;52034;51.926;6.320;2023-09-12T04:48:17;39.57;;;30.67;;
58101;SDS011;52034;51.926;6.320;2023-09-12T04:49:18;42.47;;;33.90;;
58101;SDS011;52034;51.926;6.320;2023-09-12T04:50:18;43.60;;;33.87;;
58101;SDS011;52034;51.926;6.320;2023-09-12T04:51:18;47.33;;;33.60;;
58101;SDS011;52034;51.926;6.320;2023-09-12T04:52:19;43.90;;;33.87;;
58101;SDS011;52034;51.926;6.320;2023-09-12T04:53:19;43.57;;;33.03;;
58101;SDS011;52034;51.926;6.320;2023-09-12T04:54:19;49.10;;;34.40;;
58101;SDS011;52034;51.926;6.320;2023-09-12T04:55:19;45.60;;;34.53;;
58101;SDS011;52034;51.926;6.320;2023-09-12T04:56:20;40.17;;;31.93;;
58101;SDS011;52034;51.926;6.320;2023-09-12T04:57:20;33.40;;;27.23;;
58101;SDS011;52034;51.926;6.320;2023-09-12T04:58:20;36.50;;;28.43;;
58101;SDS011;52034;51.926;6.320;2023-09-12T04:59:21;36.37;;;29.17;;
58101;SDS011;52034;51.926;6.320;2023-09-12T05:00:21;35.93;;;28.27;;
58101;SDS011;52034;51.926;6.320;2023-09-12T05:01:21;35.63;;;28.90;;
58101;SDS011;52034;51.926;6.320;2023-09-12T05:02:22;34.50;;;28.50;;
58101;SDS011;52034;51.926;6.320;2023-09-12T05:03:22;34.80;;;29.30;;
58101;SDS011;52034;51.926;6.320;2023-09-12T05:04:23;48.95;;;34.58;;
58101;SDS011;52034;51.926;6.320;2023-09-12T05:05:23;48.47;;;35.53;;
58101;SDS011;52034;51.926;6.320;2023-09-12T05:06:23;51.43;;;36.33;;
58101;SDS011;52034;51.926;6.320;2023-09-12T05:07:24;44.00;;;34.60;;
58101;SDS011;52034;51.926;6.320;2023-09-12T05:08:24;56.50;;;38.07;;
58101;SDS011;52034;51.926;6.320;2023-09-12T05:09:25;46.47;;;34.67;;
58101;SDS011;52034;51.926;6.320;2023-09-12T05:10:25;43.60;;;34.47;;
58101;SDS011;52034;51.926;6.320;2023-09-12T05:11:25;46.43;;;34.20;;
58101;SDS011;52034;51.926;6.320;2023-09-12T05:12:25;45.17;;;34.97;;
58101;SDS011;52034;51.926;6.320;2023-09-12T05:13:26;45.17;;;34.33;;
58101;SDS011;52034;51.926;6.320;2023-09-12T05:14:27;41.03;;;32.23;;
58101;SDS011;52034;51.926;6.320;2023-09-12T05:15:27;37.83;;;30.63;;
58101;SDS011;52034;51.926;6.320;2023-09-12T05:16:27;43.00;;;32.53;;
58101;SDS011;52034;51.926;6.320;2023-09-12T05:17:27;40.37;;;32.40;;
58101;SDS011;52034;51.926;6.320;2023-09-12T05:18:28;38.10;;;30.13;;
58101;SDS011;52034;51.926;6.320;2023-09-12T05:19:29;38.23;;;31.17;;
58101;SDS011;52034;51.926;6.320;2023-09-12T05:20:30;37.53;;;31.65;;
58101;SDS011;52034;51.926;6.320;2023-09-12T05:21:30;38.60;;;31.07;;
58101;SDS011;52034;51.926;6.320;2023-09-12T05:22:31;46.17;;;35.43;;
58101;SDS011;52034;51.926;6.320;2023-09-12T05:23:31;34.07;;;28.80;;
58101;SDS011;52034;51.926;6.320;2023-09-12T05:24:31;31.77;;;28.33;;
58101;SDS011;52034;51.926;6.320;2023-09-12T05:25:31;35.57;;;28.10;;
58101;SDS011;52034;51.926;6.320;2023-09-12T05:26:32;35.43;;;29.00;;
58101;SDS011;52034;51.926;6.320;2023-09-12T05:27:32;39.20;;;30.70;;
58101;SDS011;52034;51.926;6.320;2023-09-12T05:28:33;33.57;;;28.47;;
58101;SDS011;52034;51.926;6.320;2023-09-12T05:29:34;37.03;;;30.30;;
58101;SDS011;52034;51.926;6.320;2023-09-12T05:30:34;40.50;;;32.63;;
58101;SDS011;52034;51.926;6.320;2023-09-12T05:31:34;35.90;;;30.80;;
58101;SDS011;52034;51.926;6.320;2023-09-12T05:32:35;39.77;;;33.83;;
58101;SDS011;52034;51.926;6.320;2023-09-12T05:33:36;41.20;;;33.40;;
58101;SDS011;52034;51.926;6.320;2023-09-12T05:34:36;35.93;;;30.30;;
58101;SDS011;52034;51.926;6.320;2023-09-12T05:35:37;36.03;;;29.77;;
58101;SDS011;52034;51.926;6.320;2023-09-12T05:36:37;38.47;;;29.90;;
58101;SDS011;52034;51.926;6.320;2023-09-12T05:37:38;39.13;;;30.33;;
58101;SDS011;52034;51.926;6.320;2023-09-12T05:38:38;37.67;;;30.83;;
58101;SDS011;52034;51.926;6.320;2023-09-12T05:39:38;44.80;;;34.03;;
58101;SDS011;52034;51.926;6.320;2023-09-12T05:40:39;36.57;;;31.27;;
58101;SDS011;52034;51.926;6.320;2023-09-12T05:41:39;36.43;;;31.07;;
58101;SDS011;52034;51.926;6.320;2023-09-12T05:42:39;38.37;;;32.43;;
58101;SDS011;52034;51.926;6.320;2023-09-12T05:43:40;39.37;;;31.80;;
58101;SDS011;52034;51.926;6.320;2023-09-12T05:44:41;38.20;;;29.60;;
58101;SDS011;52034;51.926;6.320;2023-09-12T05:45:43;38.05;;;29.80;;
58101;SDS011;52034;51.926;6.320;2023-09-12T05:46:46;39.15;;;30.88;;
58101;SDS011;52034;51.926;6.320;2023-09-12T05:47:47;39.28;;;30.23;;
58101;SDS011;52034;51.926;6.320;2023-09-12T05:48:48;41.58;;;29.73;;
58101;SDS011;52034;51.926;6.320;2023-09-12T05:49:49;35.97;;;30.13;;
58101;SDS011;52034;51.926;6.320;2023-09-12T05:50:50;34.67;;;27.48;;
58101;SDS011;52034;51.926;6.320;2023-09-12T05:51:50;30.97;;;26.77;;
58101;SDS011;52034;51.926;6.320;2023-09-12T05:52:50;31.63;;;27.23;;
58101;SDS011;52034;51.926;6.320;2023-09-12T05:53:51;33.45;;;26.80;;
58101;SDS011;52034;51.926;6.320;2023-09-12T05:54:52;33.73;;;26.70;;
58101;SDS011;52034;51.926;6.320;2023-09-12T05:55:52;36.50;;;29.17;;
58101;SDS011;52034;51.926;6.320;2023-09-12T05:56:52;37.53;;;30.23;;
58101;SDS011;52034;51.926;6.320;2023-09-12T05:57:54;40.92;;;31.90;;
58101;SDS011;52034;51.926;6.320;2023-09-12T05:58:55;34.67;;;28.27;;
58101;SDS011;52034;51.926;6.320;2023-09-12T05:59:55;38.20;;;30.17;;
58101;SDS011;52034;51.926;6.320;2023-09-12T06:00:55;33.50;;;28.10;;
58101;SDS011;52034;51.926;6.320;2023-09-12T06:01:56;32.13;;;28.27;;
58101;SDS011;52034;51.926;6.320;2023-09-12T06:02:56;33.97;;;28.33;;
58101;SDS011;52034;51.926;6.320;2023-09-12T06:03:56;35.90;;;29.97;;
58101;SDS011;52034;51.926;6.320;2023-09-12T06:04:57;37.33;;;27.67;;
58101;SDS011;52034;51.926;6.320;2023-09-12T06:05:57;37.27;;;31.23;;